createdAt,value
2023-12-29T00:06:21.440Z,9.52
2023-12-29T00:16:27.636Z,8.53
2023-12-29T00:26:33.884Z,8.29
2023-12-29T00:36:40.121Z,8.78
2023-12-29T00:46:46.234Z,7.73
2023-12-29T00:56:52.412Z,7.66
2023-12-29T01:06:52.671Z,7.29
2023-12-29T01:16:52.853Z,7.41
2023-12-29T01:26:59.097Z,7.79
2023-12-29T01:37:05.528Z,7.55
2023-12-29T01:47:11.504Z,6.66
2023-12-29T01:57:17.697Z,7.25
2023-12-29T02:07:23.938Z,7.28
2023-12-29T02:17:24.092Z,6.89
2023-12-29T02:27:30.379Z,7.05
2023-12-29T02:37:36.501Z,6.88
2023-12-29T02:47:42.764Z,6.59
2023-12-29T02:57:48.975Z,6.82
2023-12-29T03:07:55.123Z,5.96
2023-12-29T03:18:01.502Z,6.12
2023-12-29T03:28:07.559Z,6.03
2023-12-29T03:38:13.690Z,5.42
2023-12-29T03:48:19.983Z,5.86
2023-12-29T03:58:26.184Z,5.25
2023-12-29T04:08:32.331Z,5.25
2023-12-29T04:18:32.644Z,5.43
2023-12-29T04:28:38.778Z,5.39
2023-12-29T04:38:44.954Z,5.24
2023-12-29T04:48:51.185Z,5.3
2023-12-29T04:58:57.333Z,5.03
2023-12-29T05:09:03.525Z,5.22
2023-12-29T05:19:09.778Z,4.75
2023-12-29T05:29:15.930Z,4.7
2023-12-29T05:39:22.154Z,4.96
2023-12-29T05:49:28.429Z,3.88
2023-12-29T05:59:34.571Z,4.33
2023-12-29T06:09:40.771Z,4.58
2023-12-29T06:19:47.008Z,3.83
2023-12-29T06:29:53.175Z,4.12
2023-12-29T06:39:59.461Z,4.09
2023-12-29T06:50:05.594Z,4.49
2023-12-29T07:00:05.829Z,3.84
2023-12-29T07:10:12.031Z,3.52
2023-12-29T07:20:18.199Z,3.65
2023-12-29T07:30:24.426Z,3.48
2023-12-29T07:40:30.624Z,3.59
2023-12-29T07:50:36.807Z,3.65
2023-12-29T08:00:43.013Z,4.56
2023-12-29T08:10:49.186Z,4.68
2023-12-29T08:20:55.397Z,4.91
2023-12-29T08:31:01.656Z,3.84
2023-12-29T08:41:07.804Z,4.03
2023-12-29T08:51:14.004Z,4.22
2023-12-29T09:01:20.208Z,3.7
2023-12-29T09:11:20.425Z,3.5
2023-12-29T09:21:26.592Z,3.1
2023-12-29T09:31:32.849Z,3.45
2023-12-29T09:41:38.986Z,3.45
2023-12-29T09:51:45.234Z,2.73
2023-12-29T10:01:51.523Z,3.1
2023-12-29T10:11:57.604Z,3.13
2023-12-29T10:22:03.906Z,2.83
2023-12-29T10:32:10.056Z,2.75
2023-12-29T10:42:16.493Z,2.53
2023-12-29T10:52:22.429Z,2.34
2023-12-29T11:02:28.651Z,2.3
2023-12-29T11:12:34.844Z,2.51
2023-12-29T11:22:41.023Z,2.51
2023-12-29T11:32:47.288Z,2.57
2023-12-29T11:42:53.455Z,2.31
2023-12-29T11:52:53.672Z,2.36
2023-12-29T12:03:00.141Z,2.09
2023-12-29T12:13:06.427Z,2.16
2023-12-29T12:23:12.369Z,2.13
2023-12-29T12:33:18.632Z,2.68
2023-12-29T12:43:24.839Z,2.48
2023-12-29T12:53:30.978Z,2.27
2023-12-29T13:03:37.219Z,2.37
2023-12-29T13:13:43.365Z,2.05
2023-12-29T13:23:49.571Z,2.26
2023-12-29T13:33:55.859Z,2.22
2023-12-29T13:44:01.976Z,2.61
2023-12-29T13:54:08.178Z,2.91
2023-12-29T14:04:14.515Z,2.71
2023-12-29T14:14:20.602Z,2.9
2023-12-29T14:24:26.801Z,2.54
2023-12-29T14:34:33.035Z,2.55
2023-12-29T14:44:39.209Z,3.04
2023-12-29T14:54:45.407Z,2.85
2023-12-29T15:04:51.611Z,3.2
2023-12-29T15:14:57.807Z,2.62
2023-12-29T15:25:04.002Z,2.62
2023-12-29T15:35:10.208Z,3.01
2023-12-29T15:45:16.416Z,2.7
2023-12-29T15:55:16.605Z,2.73
2023-12-29T16:05:22.863Z,2.98
2023-12-29T16:15:29.035Z,3.07
2023-12-29T16:25:35.361Z,3.05
2023-12-29T16:35:54.731Z,2.97
2023-12-29T16:45:56.311Z,3.25
2023-12-29T16:56:01.189Z,2.65
2023-12-29T17:06:07.356Z,2.98
2023-12-29T17:16:14.765Z,3.01
2023-12-29T17:26:19.735Z,3.11
2023-12-29T17:36:25.965Z,3.77
2023-12-29T17:46:32.140Z,3.24
2023-12-29T17:56:38.386Z,3.53
2023-12-29T18:06:49.225Z,3.2
2023-12-29T18:16:50.751Z,3.57
2023-12-29T18:26:56.946Z,3.8
2023-12-29T18:36:57.210Z,3.5
2023-12-29T18:47:03.379Z,4.16
2023-12-29T18:57:09.589Z,4.56
2023-12-29T19:07:15.848Z,5.49
2023-12-29T19:17:21.994Z,6.06
2023-12-29T19:27:28.193Z,5.99
2023-12-29T19:37:34.369Z,6.74
2023-12-29T19:47:40.647Z,8.24
2023-12-29T19:57:46.843Z,7.51
2023-12-29T20:07:46.982Z,6.97
2023-12-29T20:17:53.282Z,7.9
2023-12-29T20:27:59.467Z,7.52
2023-12-29T20:38:05.696Z,8.34
2023-12-29T20:48:05.848Z,7.77
2023-12-29T20:58:12.200Z,7.93
2023-12-29T21:08:18.211Z,8.26
2023-12-29T21:18:24.485Z,7.23
2023-12-29T21:28:30.687Z,6.86
2023-12-29T21:38:36.866Z,7.67
2023-12-29T21:48:43.106Z,7.09
2023-12-29T21:58:50.270Z,7.23
2023-12-29T22:08:55.420Z,7.51
2023-12-29T22:19:01.667Z,6.6
2023-12-29T22:29:07.847Z,7.55
2023-12-29T22:39:14.021Z,6.8
2023-12-29T22:49:20.350Z,6.94
2023-12-29T22:59:26.423Z,6.74
2023-12-29T23:09:32.643Z,7
2023-12-29T23:19:38.992Z,6.27
2023-12-29T23:29:45.144Z,6.21
2023-12-29T23:39:51.272Z,7.01
2023-12-29T23:49:57.431Z,6.15
2023-12-29T23:59:57.701Z,5.97
